createdAt,value
2023-02-13T00:01:15.472Z,7.04
2023-02-13T00:03:17.021Z,7.00
2023-02-13T00:05:18.787Z,6.97
2023-02-13T00:07:20.327Z,6.92
2023-02-13T00:09:21.990Z,6.88
2023-02-13T00:11:23.604Z,6.86
2023-02-13T00:13:25.231Z,6.82
2023-02-13T00:15:27.040Z,6.78
2023-02-13T00:17:28.809Z,6.74
2023-02-13T00:19:30.508Z,6.71
2023-02-13T00:21:32.219Z,6.67
2023-02-13T00:23:36.242Z,6.61
2023-02-13T00:25:38.867Z,6.58
2023-02-13T00:27:40.290Z,6.53
2023-02-13T00:29:49.270Z,6.48
2023-02-13T00:31:51.098Z,6.43
2023-02-13T00:33:52.679Z,6.39
2023-02-13T00:36:13.047Z,6.33
2023-02-13T00:38:14.454Z,6.30
2023-02-13T00:40:16.132Z,6.25
2023-02-13T00:42:24.050Z,6.21
2023-02-13T00:44:25.650Z,6.18
2023-02-13T00:46:29.332Z,6.13
2023-02-13T00:48:33.638Z,6.09
2023-02-13T00:50:35.418Z,6.02
2023-02-13T00:52:40.663Z,6.00
2023-02-13T00:54:42.344Z,5.95
2023-02-13T00:56:44.065Z,5.90
2023-02-13T00:58:48.044Z,5.88
2023-02-13T01:00:49.855Z,5.86
2023-02-13T01:02:51.384Z,5.82
2023-02-13T01:04:53.132Z,5.76
2023-02-13T01:06:54.871Z,5.73
2023-02-13T01:08:56.482Z,5.69
2023-02-13T01:11:00.796Z,5.65
2023-02-13T01:13:02.407Z,5.62
2023-02-13T01:15:05.949Z,5.61
2023-02-13T01:17:08.208Z,5.58
2023-02-13T01:19:15.819Z,5.54
2023-02-13T01:21:20.184Z,5.53
2023-02-13T01:23:21.602Z,5.49
2023-02-13T01:25:23.679Z,5.46
2023-02-13T01:27:25.593Z,5.43
2023-02-13T01:29:27.218Z,5.43
2023-02-13T01:31:29.147Z,5.42
2023-02-13T01:33:30.697Z,5.41
2023-02-13T01:35:32.340Z,5.39
2023-02-13T01:37:34.096Z,5.36
2023-02-13T01:39:35.883Z,5.35
2023-02-13T01:41:38.044Z,5.31
2023-02-13T01:43:59.783Z,5.27
2023-02-13T01:46:02.489Z,5.26
2023-02-13T01:48:13.496Z,5.22
2023-02-13T01:50:36.028Z,5.19
2023-02-13T01:52:42.386Z,5.18
2023-02-13T01:54:44.622Z,5.17
2023-02-13T01:56:51.779Z,5.13
2023-02-13T01:58:59.789Z,5.12
2023-02-13T02:01:02.958Z,5.12
2023-02-13T02:03:16.135Z,5.07
2023-02-13T02:05:21.850Z,5.07
2023-02-13T02:07:26.311Z,5.04
2023-02-13T02:09:32.667Z,5.02
2023-02-13T02:11:52.756Z,5.00
2023-02-13T02:13:56.032Z,5.00
2023-02-13T02:16:09.609Z,4.98
2023-02-13T02:18:23.259Z,4.96
2023-02-13T02:21:01.417Z,4.95
2023-02-13T02:23:25.117Z,4.95
2023-02-13T02:25:46.387Z,4.93
2023-02-13T02:28:02.624Z,4.88
2023-02-13T02:30:27.473Z,4.90
2023-02-13T02:32:44.809Z,4.86
2023-02-13T02:34:58.441Z,4.89
2023-02-13T02:37:11.864Z,4.86
2023-02-13T02:39:31.921Z,4.81
2023-02-13T02:41:46.526Z,4.82
2023-02-13T02:44:20.348Z,4.82
2023-02-13T02:46:36.225Z,4.83
2023-02-13T02:49:12.689Z,4.81
2023-02-13T02:51:24.948Z,4.85
2023-02-13T02:53:52.447Z,4.85
2023-02-13T02:55:54.129Z,4.87
2023-02-13T02:58:28.808Z,4.86
2023-02-13T03:00:55.342Z,4.86
2023-02-13T03:03:15.949Z,4.84
2023-02-13T03:05:43.670Z,4.82
2023-02-13T03:07:45.222Z,4.83
2023-02-13T03:10:16.635Z,4.83
2023-02-13T03:12:43.253Z,4.81
2023-02-13T03:14:44.971Z,4.81
2023-02-13T03:17:08.135Z,4.82
2023-02-13T03:19:41.607Z,4.80
2023-02-13T03:22:15.177Z,4.77
2023-02-13T03:24:25.986Z,4.77
2023-02-13T03:26:50.534Z,4.75
2023-02-13T03:29:58.953Z,4.75
2023-02-13T03:32:17.565Z,4.74
2023-02-13T03:34:25.819Z,4.72
2023-02-13T03:37:09.763Z,4.71
2023-02-13T03:39:14.723Z,4.70
2023-02-13T03:41:22.008Z,4.66
2023-02-13T03:43:25.314Z,4.68
2023-02-13T03:45:54.278Z,4.66
2023-02-13T03:47:59.580Z,4.66
2023-02-13T03:50:09.176Z,4.68
2023-02-13T03:52:22.521Z,4.63
2023-02-13T03:55:12.605Z,4.62
2023-02-13T03:57:38.937Z,4.61
2023-02-13T03:59:43.946Z,4.61
2023-02-13T04:02:01.588Z,4.60
2023-02-13T04:04:23.186Z,4.59
2023-02-13T04:07:00.017Z,4.56
2023-02-13T04:09:01.977Z,4.56
2023-02-13T04:11:23.728Z,4.53
2023-02-13T04:13:34.719Z,4.54
2023-02-13T04:15:45.923Z,4.53
2023-02-13T04:17:56.835Z,4.55
2023-02-13T04:19:58.462Z,4.55
2023-02-13T04:22:01.783Z,4.55
2023-02-13T04:24:03.749Z,4.54
2023-02-13T04:26:14.946Z,4.54
2023-02-13T04:28:17.233Z,4.52
2023-02-13T04:30:18.818Z,4.50
2023-02-13T04:32:20.373Z,4.50
2023-02-13T04:34:22.009Z,4.49
2023-02-13T04:36:23.619Z,4.49
2023-02-13T04:38:25.316Z,4.50
2023-02-13T04:40:26.899Z,4.51
2023-02-13T04:42:28.840Z,4.51
2023-02-13T04:44:30.400Z,4.48
2023-02-13T04:46:31.950Z,4.48
2023-02-13T04:48:33.753Z,4.48
2023-02-13T04:50:35.551Z,4.49
2023-02-13T04:52:37.357Z,4.50
2023-02-13T04:54:38.795Z,4.51
2023-02-13T04:56:40.273Z,4.49
2023-02-13T04:58:42.141Z,4.51
2023-02-13T05:00:43.735Z,4.49
2023-02-13T05:02:45.397Z,4.47
2023-02-13T05:04:46.891Z,4.48
2023-02-13T05:06:48.389Z,4.49
2023-02-13T05:08:49.943Z,4.48
2023-02-13T05:10:51.474Z,4.47
2023-02-13T05:12:53.321Z,4.48
2023-02-13T05:14:54.725Z,4.50
2023-02-13T05:16:56.235Z,4.50
2023-02-13T05:18:57.828Z,4.49
2023-02-13T05:21:18.138Z,4.47
2023-02-13T05:23:22.971Z,4.47
2023-02-13T05:25:24.491Z,4.46
2023-02-13T05:27:26.014Z,4.47
2023-02-13T05:29:27.737Z,4.47
2023-02-13T05:31:29.630Z,4.45
2023-02-13T05:33:31.398Z,4.43
2023-02-13T05:35:32.949Z,4.44
2023-02-13T05:37:34.575Z,4.43
2023-02-13T05:39:36.223Z,4.42
2023-02-13T05:41:37.741Z,4.42
2023-02-13T05:43:40.350Z,4.41
2023-02-13T05:45:41.897Z,4.40
2023-02-13T05:47:50.456Z,4.39
2023-02-13T05:49:52.089Z,4.38
2023-02-13T05:51:53.710Z,4.37
2023-02-13T05:53:58.595Z,4.35
2023-02-13T05:56:00.184Z,4.35
2023-02-13T05:58:01.704Z,4.35
2023-02-13T06:00:04.491Z,4.33
2023-02-13T06:02:07.805Z,4.35
2023-02-13T06:04:09.538Z,4.34
2023-02-13T06:06:11.338Z,4.33
2023-02-13T06:08:12.978Z,4.32
2023-02-13T06:10:14.498Z,4.31
2023-02-13T06:12:16.203Z,4.31
2023-02-13T06:14:17.812Z,4.30
2023-02-13T06:16:19.446Z,4.29
2023-02-13T06:18:21.186Z,4.26
2023-02-13T06:20:23.163Z,4.25
2023-02-13T06:22:39.639Z,4.25
2023-02-13T06:24:41.492Z,4.24
2023-02-13T06:26:43.123Z,4.20
2023-02-13T06:28:44.790Z,4.20
2023-02-13T06:30:47.340Z,4.19
2023-02-13T06:32:49.043Z,4.18
2023-02-13T06:34:50.592Z,4.18
2023-02-13T06:36:52.812Z,4.18
2023-02-13T06:38:57.401Z,4.19
2023-02-13T06:41:02.109Z,4.22
2023-02-13T06:43:06.531Z,4.21
2023-02-13T06:45:08.976Z,4.20
2023-02-13T06:47:11.040Z,4.20
2023-02-13T06:49:12.686Z,4.21
2023-02-13T06:51:14.282Z,4.21
2023-02-13T06:53:15.829Z,4.20
2023-02-13T06:55:18.345Z,4.21
2023-02-13T06:57:19.902Z,4.20
2023-02-13T06:59:21.549Z,4.21
2023-02-13T07:01:23.353Z,4.20
2023-02-13T07:03:24.976Z,4.22
2023-02-13T07:05:26.905Z,4.24
2023-02-13T07:07:28.639Z,4.22
2023-02-13T07:09:31.719Z,4.22
2023-02-13T07:11:33.459Z,4.21
2023-02-13T07:13:35.228Z,4.23
2023-02-13T07:15:37.958Z,4.24
2023-02-13T07:17:39.617Z,4.24
2023-02-13T07:19:41.283Z,4.25
2023-02-13T07:21:42.840Z,4.22
2023-02-13T07:23:44.595Z,4.21
2023-02-13T07:25:46.272Z,4.25
2023-02-13T07:27:47.768Z,4.24
2023-02-13T07:29:49.346Z,4.24
2023-02-13T07:31:50.856Z,4.25
2023-02-13T07:33:52.458Z,4.24
2023-02-13T07:35:53.976Z,4.26
2023-02-13T07:37:55.933Z,4.26
2023-02-13T07:39:57.707Z,4.28
2023-02-13T07:41:59.377Z,4.30
2023-02-13T07:44:09.182Z,4.30
2023-02-13T07:46:11.075Z,4.30
2023-02-13T07:48:12.662Z,4.30
2023-02-13T07:50:14.355Z,4.31
2023-02-13T07:52:15.900Z,4.32
2023-02-13T07:54:17.521Z,4.34
2023-02-13T07:56:19.001Z,4.35
2023-02-13T07:58:21.360Z,4.34
2023-02-13T08:00:23.546Z,4.38
2023-02-13T08:02:28.458Z,4.39
2023-02-13T08:04:30.101Z,4.38
2023-02-13T08:06:31.853Z,4.40
2023-02-13T08:08:34.001Z,4.40
2023-02-13T08:10:54.407Z,4.42
2023-02-13T08:12:56.060Z,4.43
2023-02-13T08:14:57.689Z,4.45
2023-02-13T08:17:00.896Z,4.48
2023-02-13T08:19:02.387Z,4.52
2023-02-13T08:21:04.231Z,4.52
2023-02-13T08:23:08.048Z,4.54
2023-02-13T08:25:09.655Z,4.55
2023-02-13T08:27:13.525Z,4.58
2023-02-13T08:29:14.962Z,4.61
2023-02-13T08:31:16.655Z,4.63
2023-02-13T08:33:18.266Z,4.63
2023-02-13T08:35:23.973Z,4.65
2023-02-13T08:37:25.561Z,4.68
2023-02-13T08:39:36.468Z,4.71
2023-02-13T08:41:38.140Z,4.76
2023-02-13T08:43:42.149Z,4.77
2023-02-13T08:45:45.116Z,4.79
2023-02-13T08:47:46.698Z,4.80
2023-02-13T08:49:48.534Z,4.84
2023-02-13T08:51:50.923Z,4.86
2023-02-13T08:53:52.697Z,4.89
2023-02-13T08:55:55.900Z,4.92
2023-02-13T08:58:04.937Z,4.93
2023-02-13T09:00:07.319Z,4.95
2023-02-13T09:02:11.604Z,4.96
2023-02-13T09:04:18.217Z,5.00
2023-02-13T09:06:19.848Z,5.04
2023-02-13T09:08:21.360Z,5.07
2023-02-13T09:10:23.604Z,5.09
2023-02-13T09:12:25.447Z,5.12
2023-02-13T09:14:27.199Z,5.15
2023-02-13T09:16:29.030Z,5.18
2023-02-13T09:18:33.311Z,5.21
2023-02-13T09:20:36.411Z,5.23
2023-02-13T09:22:38.111Z,5.25
2023-02-13T09:24:39.808Z,5.29
2023-02-13T09:26:41.453Z,5.34
2023-02-13T09:28:43.812Z,5.38
2023-02-13T09:30:46.063Z,5.43
2023-02-13T09:32:47.775Z,5.48
2023-02-13T09:34:49.316Z,5.53
2023-02-13T09:36:54.452Z,5.56
2023-02-13T09:38:57.478Z,5.60
2023-02-13T09:41:12.216Z,5.64
2023-02-13T09:43:20.667Z,5.69
2023-02-13T09:45:22.803Z,5.73
2023-02-13T09:47:41.562Z,5.76
2023-02-13T09:49:54.122Z,5.81
2023-02-13T09:51:57.510Z,5.86
2023-02-13T09:54:09.164Z,5.91
2023-02-13T09:56:16.018Z,5.95
2023-02-13T09:58:53.699Z,5.99
2023-02-13T10:01:00.886Z,6.04
2023-02-13T10:03:13.364Z,6.07
2023-02-13T10:05:50.187Z,6.08
2023-02-13T10:08:20.904Z,6.14
2023-02-13T10:10:47.697Z,6.20
2023-02-13T10:13:08.495Z,6.24
2023-02-13T10:15:24.728Z,6.29
2023-02-13T10:17:33.140Z,6.35
2023-02-13T10:19:44.296Z,6.44
2023-02-13T10:22:14.527Z,6.49
2023-02-13T10:24:29.880Z,6.56
2023-02-13T10:26:42.850Z,6.62
2023-02-13T10:29:15.802Z,6.68
2023-02-13T10:31:22.866Z,6.73
2023-02-13T10:33:38.742Z,6.78
2023-02-13T10:35:43.399Z,6.83
2023-02-13T10:37:51.183Z,6.88
2023-02-13T10:39:56.521Z,6.94
2023-02-13T10:42:23.004Z,6.99
2023-02-13T10:44:53.740Z,7.04
2023-02-13T10:47:17.265Z,7.10
2023-02-13T10:49:46.215Z,7.16
2023-02-13T10:52:01.571Z,7.21
2023-02-13T10:54:27.849Z,7.27
2023-02-13T10:56:51.920Z,7.30
2023-02-13T10:59:03.068Z,7.34
2023-02-13T11:01:22.315Z,7.39
2023-02-13T11:03:26.496Z,7.42
2023-02-13T11:05:39.704Z,7.49
2023-02-13T11:07:42.489Z,7.55
2023-02-13T11:09:47.252Z,7.59
2023-02-13T11:11:50.124Z,7.65
2023-02-13T11:14:13.306Z,7.71
2023-02-13T11:16:15.181Z,7.79
2023-02-13T11:18:21.964Z,7.85
2023-02-13T11:20:37.761Z,7.90
2023-02-13T11:22:42.656Z,7.95
2023-02-13T11:24:53.773Z,8.01
2023-02-13T11:27:13.617Z,8.04
2023-02-13T11:29:24.026Z,8.09
2023-02-13T11:31:30.213Z,8.15
2023-02-13T11:33:37.836Z,8.18
2023-02-13T11:35:39.533Z,8.24
2023-02-13T11:37:47.678Z,8.28
2023-02-13T11:39:51.647Z,8.34
2023-02-13T11:41:55.027Z,8.39
2023-02-13T11:44:04.193Z,8.45
2023-02-13T11:46:11.178Z,8.52
2023-02-13T11:48:23.305Z,8.55
2023-02-13T11:50:36.187Z,8.58
2023-02-13T11:52:37.946Z,8.63
2023-02-13T11:54:43.543Z,8.64
2023-02-13T11:57:06.135Z,8.66
2023-02-13T11:59:13.682Z,8.72
2023-02-13T12:01:21.389Z,8.78
2023-02-13T12:03:31.689Z,8.82
2023-02-13T12:05:38.683Z,8.87
2023-02-13T12:07:41.797Z,8.93
2023-02-13T12:09:45.489Z,8.98
2023-02-13T12:11:53.524Z,9.02
2023-02-13T12:13:55.775Z,9.10
2023-02-13T12:16:05.424Z,9.16
2023-02-13T12:18:30.067Z,9.22
2023-02-13T12:20:41.611Z,9.30
2023-02-13T12:23:06.189Z,9.37
2023-02-13T12:25:39.377Z,9.42
2023-02-13T12:27:59.990Z,9.50
2023-02-13T12:30:23.519Z,9.57
2023-02-13T12:32:47.961Z,9.67
2023-02-13T12:35:08.147Z,9.77
2023-02-13T12:37:30.544Z,9.85
2023-02-13T12:39:36.684Z,9.95
2023-02-13T12:41:53.554Z,10.01
2023-02-13T12:44:49.993Z,10.08
2023-02-13T12:47:14.731Z,10.18
2023-02-13T12:49:37.041Z,10.24
2023-02-13T12:51:49.590Z,10.35
2023-02-13T12:53:53.842Z,10.46
2023-02-13T12:56:13.717Z,10.59
2023-02-13T12:58:38.640Z,10.76
2023-02-13T13:00:45.994Z,10.94
2023-02-13T13:03:24.144Z,11.11
2023-02-13T13:05:45.204Z,11.32
2023-02-13T13:08:18.368Z,11.51
2023-02-13T13:10:58.956Z,11.70
2023-02-13T13:13:22.578Z,11.88
2023-02-13T13:15:39.464Z,12.02
2023-02-13T13:18:15.968Z,12.18
2023-02-13T13:20:36.523Z,12.33
2023-02-13T13:22:51.185Z,12.46
2023-02-13T13:25:22.475Z,12.58
2023-02-13T13:27:28.310Z,12.69
2023-02-13T13:29:47.866Z,12.79
2023-02-13T13:31:59.898Z,12.91
2023-02-13T13:34:05.919Z,13.03
2023-02-13T13:36:34.662Z,13.15
2023-02-13T13:38:39.377Z,13.24
2023-02-13T13:41:12.107Z,13.33
2023-02-13T13:43:39.445Z,13.40
2023-02-13T13:45:50.297Z,13.47
2023-02-13T13:48:37.629Z,13.53
2023-02-13T13:50:41.834Z,13.59
2023-02-13T13:53:06.045Z,13.64
2023-02-13T13:55:48.073Z,13.71
2023-02-13T13:58:00.197Z,13.81
2023-02-13T14:00:12.763Z,13.88
2023-02-13T14:02:18.842Z,13.95
2023-02-13T14:04:32.898Z,14.02
2023-02-13T14:06:46.306Z,14.08
2023-02-13T14:09:09.647Z,14.12
2023-02-13T14:11:46.963Z,14.18
2023-02-13T14:13:50.404Z,14.23
2023-02-13T14:15:52.727Z,14.28
2023-02-13T14:17:55.559Z,14.31
2023-02-13T14:19:58.358Z,14.33
2023-02-13T14:22:18.661Z,14.35
2023-02-13T14:24:22.482Z,14.37
2023-02-13T14:26:32.077Z,14.37
2023-02-13T14:28:33.873Z,14.38
2023-02-13T14:30:38.263Z,14.39
2023-02-13T14:32:41.254Z,14.37
2023-02-13T14:34:50.929Z,14.34
2023-02-13T14:37:10.946Z,14.32
2023-02-13T14:39:27.609Z,14.30
2023-02-13T14:41:51.150Z,14.27
2023-02-13T14:43:53.930Z,14.26
2023-02-13T14:46:25.360Z,14.24
2023-02-13T14:48:42.641Z,14.23
2023-02-13T14:50:51.801Z,14.23
2023-02-13T14:52:55.227Z,14.24
2023-02-13T14:55:05.452Z,14.21
2023-02-13T14:57:17.282Z,14.18
2023-02-13T14:59:31.491Z,14.17
2023-02-13T15:01:44.438Z,14.15
2023-02-13T15:03:55.105Z,14.15
2023-02-13T15:06:01.216Z,14.12
2023-02-13T15:08:14.165Z,14.11
2023-02-13T15:10:41.194Z,14.08
2023-02-13T15:12:43.102Z,14.07
2023-02-13T15:14:47.252Z,14.08
2023-02-13T15:16:55.041Z,14.05
2023-02-13T15:18:57.078Z,14.04
2023-02-13T15:21:01.209Z,14.02
2023-02-13T15:23:06.655Z,14.00
2023-02-13T15:25:09.357Z,13.99
2023-02-13T15:27:28.823Z,13.95
2023-02-13T15:29:53.887Z,13.92
2023-02-13T15:31:55.849Z,13.89
2023-02-13T15:33:58.816Z,13.88
2023-02-13T15:36:02.897Z,13.85
2023-02-13T15:38:30.804Z,13.78
2023-02-13T15:40:41.071Z,13.74
2023-02-13T15:42:42.654Z,13.71
2023-02-13T15:44:47.714Z,13.67
2023-02-13T15:46:53.873Z,13.63
2023-02-13T15:48:58.915Z,13.57
2023-02-13T15:51:01.397Z,13.53
2023-02-13T15:53:05.965Z,13.51
2023-02-13T15:55:19.791Z,13.45
2023-02-13T15:57:23.476Z,13.41
2023-02-13T15:59:36.599Z,13.38
2023-02-13T16:01:44.555Z,13.31
2023-02-13T16:03:49.678Z,13.26
2023-02-13T16:05:51.537Z,13.21
2023-02-13T16:07:58.864Z,13.17
2023-02-13T16:10:26.150Z,13.12
2023-02-13T16:12:28.720Z,13.08
2023-02-13T16:14:38.330Z,13.05
2023-02-13T16:16:56.539Z,13.01
2023-02-13T16:18:58.237Z,12.94
2023-02-13T16:21:00.618Z,12.89
2023-02-13T16:23:14.162Z,12.82
2023-02-13T16:25:26.500Z,12.75
2023-02-13T16:27:28.608Z,12.69
2023-02-13T16:29:30.292Z,12.64
2023-02-13T16:31:31.990Z,12.58
2023-02-13T16:33:43.071Z,12.50
2023-02-13T16:36:09.054Z,12.44
2023-02-13T16:38:23.231Z,12.36
2023-02-13T16:40:27.810Z,12.31
2023-02-13T16:42:32.698Z,12.26
2023-02-13T16:44:34.374Z,12.20
2023-02-13T16:46:53.556Z,12.13
2023-02-13T16:49:13.840Z,12.06
2023-02-13T16:51:24.843Z,11.98
2023-02-13T16:53:27.682Z,11.90
2023-02-13T16:55:31.757Z,11.84
2023-02-13T16:57:36.136Z,11.77
2023-02-13T16:59:56.638Z,11.68
2023-02-13T17:02:15.977Z,11.58
2023-02-13T17:04:28.398Z,11.49
2023-02-13T17:06:30.065Z,11.40
2023-02-13T17:08:32.346Z,11.32
2023-02-13T17:10:38.860Z,11.22
2023-02-13T17:12:40.513Z,11.13
2023-02-13T17:14:43.047Z,11.05
2023-02-13T17:16:44.782Z,10.96
2023-02-13T17:18:46.540Z,10.87
2023-02-13T17:20:51.258Z,10.79
2023-02-13T17:22:55.318Z,10.70
2023-02-13T17:24:58.697Z,10.61
2023-02-13T17:27:00.319Z,10.51
2023-02-13T17:29:03.725Z,10.42
2023-02-13T17:31:11.178Z,10.31
2023-02-13T17:33:27.532Z,10.20
2023-02-13T17:35:31.581Z,10.12
2023-02-13T17:37:36.242Z,10.04
2023-02-13T17:39:40.515Z,9.94
2023-02-13T17:41:42.963Z,9.85
2023-02-13T17:43:48.487Z,9.77
2023-02-13T17:45:51.416Z,9.68
2023-02-13T17:47:53.346Z,9.60
2023-02-13T17:50:01.987Z,9.51
2023-02-13T17:52:06.814Z,9.44
2023-02-13T17:54:12.608Z,9.35
2023-02-13T17:56:20.283Z,9.25
2023-02-13T17:58:22.109Z,9.18
2023-02-13T18:00:26.992Z,9.12
2023-02-13T18:02:28.742Z,9.05
2023-02-13T18:04:30.493Z,8.99
2023-02-13T18:06:33.294Z,8.93
2023-02-13T18:08:35.132Z,8.84
2023-02-13T18:10:37.492Z,8.79
2023-02-13T18:12:39.596Z,8.73
2023-02-13T18:14:41.938Z,8.65
2023-02-13T18:16:44.296Z,8.58
2023-02-13T18:18:54.871Z,8.51
2023-02-13T18:21:00.099Z,8.45
2023-02-13T18:23:01.998Z,8.37
2023-02-13T18:25:04.293Z,8.30
2023-02-13T18:27:11.320Z,8.24
2023-02-13T18:29:13.309Z,8.18
2023-02-13T18:31:16.825Z,8.12
2023-02-13T18:33:18.681Z,8.06
2023-02-13T18:35:21.231Z,8.00
2023-02-13T18:37:22.966Z,7.94
2023-02-13T18:39:24.435Z,7.88
2023-02-13T18:41:27.296Z,7.82
2023-02-13T18:43:28.967Z,7.77
2023-02-13T18:45:31.421Z,7.71
2023-02-13T18:47:32.960Z,7.67
2023-02-13T18:49:35.314Z,7.62
2023-02-13T18:51:37.058Z,7.59
2023-02-13T18:53:38.839Z,7.51
2023-02-13T18:55:40.611Z,7.47
2023-02-13T18:57:43.649Z,7.44
2023-02-13T18:59:48.407Z,7.37
2023-02-13T19:01:50.568Z,7.29
2023-02-13T19:03:53.108Z,7.26
2023-02-13T19:05:55.537Z,7.18
2023-02-13T19:08:02.051Z,7.14
2023-02-13T19:10:07.058Z,7.07
2023-02-13T19:12:09.008Z,7.02
2023-02-13T19:14:12.632Z,6.99
2023-02-13T19:16:19.291Z,6.92
2023-02-13T19:18:20.885Z,6.88
2023-02-13T19:20:29.363Z,6.82
2023-02-13T19:22:34.292Z,6.78
2023-02-13T19:24:36.152Z,6.73
2023-02-13T19:26:38.104Z,6.70
2023-02-13T19:28:39.801Z,6.64
2023-02-13T19:30:41.441Z,6.59
2023-02-13T19:32:43.039Z,6.58
2023-02-13T19:34:44.912Z,6.54
2023-02-13T19:36:46.647Z,6.48
2023-02-13T19:38:54.238Z,6.45
2023-02-13T19:40:56.865Z,6.41
2023-02-13T19:42:58.792Z,6.36
2023-02-13T19:45:00.342Z,6.32
2023-02-13T19:47:02.010Z,6.27
2023-02-13T19:49:04.597Z,6.22
2023-02-13T19:51:11.273Z,6.16
2023-02-13T19:53:14.090Z,6.14
2023-02-13T19:55:16.116Z,6.11
2023-02-13T19:57:18.468Z,6.07
2023-02-13T19:59:29.310Z,6.05
2023-02-13T20:01:31.700Z,6.00
2023-02-13T20:03:33.434Z,5.97
2023-02-13T20:05:42.381Z,5.93
2023-02-13T20:07:44.045Z,5.91
2023-02-13T20:09:45.658Z,5.86
2023-02-13T20:11:47.574Z,5.79
2023-02-13T20:13:55.641Z,5.78
2023-02-13T20:16:05.559Z,5.73
2023-02-13T20:18:09.876Z,5.70
2023-02-13T20:20:12.453Z,5.67
2023-02-13T20:22:16.630Z,5.64
2023-02-13T20:24:18.352Z,5.59
2023-02-13T20:26:20.556Z,5.56
2023-02-13T20:28:23.339Z,5.54
2023-02-13T20:30:25.262Z,5.50
2023-02-13T20:32:27.285Z,5.47
2023-02-13T20:34:37.639Z,5.43
2023-02-13T20:36:45.875Z,5.41
2023-02-13T20:38:47.691Z,5.36
2023-02-13T20:40:52.282Z,5.31
2023-02-13T20:42:53.781Z,5.30
2023-02-13T20:44:57.439Z,5.27
2023-02-13T20:47:00.218Z,5.28
2023-02-13T20:49:02.814Z,5.22
2023-02-13T20:51:07.572Z,5.24
2023-02-13T20:53:10.044Z,5.24
2023-02-13T20:55:11.756Z,5.28
2023-02-13T20:57:14.620Z,5.30
2023-02-13T20:59:17.209Z,5.32
2023-02-13T21:01:30.717Z,5.33
2023-02-13T21:03:32.252Z,5.35
2023-02-13T21:05:33.844Z,5.36
2023-02-13T21:07:35.529Z,5.37
2023-02-13T21:09:37.597Z,5.37
2023-02-13T21:11:42.390Z,5.37
2023-02-13T21:13:48.444Z,5.38
2023-02-13T21:15:53.605Z,5.39
2023-02-13T21:17:55.567Z,5.38
2023-02-13T21:19:57.243Z,5.39
2023-02-13T21:22:11.127Z,5.39
2023-02-13T21:24:15.988Z,5.39
2023-02-13T21:26:21.675Z,5.40
2023-02-13T21:28:23.481Z,5.39
2023-02-13T21:30:28.045Z,5.40
2023-02-13T21:32:29.885Z,5.38
2023-02-13T21:34:31.836Z,5.38
2023-02-13T21:36:35.893Z,5.39
2023-02-13T21:38:39.208Z,5.40
2023-02-13T21:40:41.968Z,5.39
2023-02-13T21:42:43.798Z,5.40
2023-02-13T21:44:48.389Z,5.40
2023-02-13T21:46:50.712Z,5.39
2023-02-13T21:48:56.782Z,5.41
2023-02-13T21:50:59.053Z,5.40
2023-02-13T21:53:03.940Z,5.40
2023-02-13T21:55:07.402Z,5.42
2023-02-13T21:57:10.454Z,5.42
2023-02-13T21:59:16.474Z,5.42
2023-02-13T22:01:26.403Z,5.42
2023-02-13T22:03:33.011Z,5.41
2023-02-13T22:05:34.590Z,5.41
2023-02-13T22:07:56.188Z,5.41
2023-02-13T22:09:57.722Z,5.40
2023-02-13T22:11:59.478Z,5.41
2023-02-13T22:14:10.834Z,5.40
2023-02-13T22:16:14.903Z,5.38
2023-02-13T22:18:16.554Z,5.37
2023-02-13T22:20:18.859Z,5.40
2023-02-13T22:22:20.655Z,5.40
2023-02-13T22:24:22.217Z,5.43
2023-02-13T22:26:32.507Z,5.43
2023-02-13T22:28:34.483Z,5.46
2023-02-13T22:30:36.423Z,5.51
2023-02-13T22:32:39.750Z,5.54
2023-02-13T22:34:41.402Z,5.62
2023-02-13T22:36:45.439Z,5.64
2023-02-13T22:38:47.135Z,5.66
2023-02-13T22:40:48.721Z,5.68
2023-02-13T22:42:52.469Z,5.69
2023-02-13T22:44:54.178Z,5.73
2023-02-13T22:46:55.835Z,5.73
2023-02-13T22:49:01.485Z,5.75
2023-02-13T22:51:10.670Z,5.75
2023-02-13T22:53:12.462Z,5.79
2023-02-13T22:55:14.183Z,5.85
2023-02-13T22:57:17.290Z,5.88
2023-02-13T22:59:21.657Z,5.92
2023-02-13T23:01:25.000Z,5.94
2023-02-13T23:03:32.615Z,5.94
2023-02-13T23:05:39.052Z,5.96
2023-02-13T23:07:42.973Z,6.01
2023-02-13T23:09:45.749Z,6.02
2023-02-13T23:12:06.009Z,6.03
2023-02-13T23:14:08.183Z,6.04
2023-02-13T23:16:13.852Z,6.04
2023-02-13T23:18:15.578Z,6.07
2023-02-13T23:20:18.728Z,6.10
2023-02-13T23:22:20.377Z,6.14
2023-02-13T23:24:21.949Z,6.19
2023-02-13T23:26:23.442Z,6.16
2023-02-13T23:28:25.062Z,6.18
2023-02-13T23:30:30.087Z,6.20
2023-02-13T23:32:32.253Z,6.21
2023-02-13T23:34:37.044Z,6.22
2023-02-13T23:36:38.626Z,6.25
2023-02-13T23:38:40.300Z,6.26
2023-02-13T23:40:41.921Z,6.30
2023-02-13T23:42:43.927Z,6.32
2023-02-13T23:44:45.482Z,6.34
2023-02-13T23:46:48.355Z,6.34
2023-02-13T23:48:49.959Z,6.37
2023-02-13T23:50:53.158Z,6.39
2023-02-13T23:52:54.710Z,6.40
2023-02-13T23:54:59.008Z,6.42
2023-02-13T23:57:00.786Z,6.43
2023-02-13T23:59:02.570Z,6.44
